San Pierre, IN (46374)

7:02 AM CDT on April 23, 2017 (GMT -0500)
Wappel Farms | | Change Station

Elev 676 ft 41.21 °N, 86.87 °W | Updated 2 seconds ago

Clear
Clear
36.0 °F
Feels Like 36 °F
N
0.0
Wind Variable Wind from SSE
Gusts 0.0 mph

Today
High -- | Low -- °F
--% Chance of Precip.
Yesterday
High -- | Low -- °F
Precip. -- in
Pressure 30.16 in
Visibility 10.0 miles
Clouds Clear
Windchill 36 °F
Dew Point 32 °F
Humidity 85%
Rainfall 0.00 in
Snow Depth Not available.
5:55 AM 7:36 PM
Waning Crescent, 12% visible
METAR KOXI 231155Z AUTO 02003KT 10SM CLR 00/M07 A3016 RMK AO1
Pressure 30.16 in
Visibility 10.0 miles
Clouds Clear
Windchill 36 °F
Dew Point 32 °F
Humidity 85%
Rainfall 0.00 in
Snow Depth Not available.
5:55 AM 7:36 PM
Waning Crescent, 12% visible
METAR KOXI 231155Z AUTO 02003KT 10SM CLR 00/M07 A3016 RMK AO1

Get Severe Weather Alerts

Thanks for signing up!

Be on the lookout for a verification email in your inbox.

You'll start receiving the daily forecast at 8 AM.

×

10-Day Weather Forecast

Almanac

Astronomy

Apr. 23, 2017 Rise Set
Actual Time
Civil Twilight
Nautical Twilight
Astronomical Twilight
Moon
Length of Visible Light
Length of Day
Tomorrow will be .
, % of the Moon is Illuminated

Today's Extremes

State Highs State Lows

Community

WunderPhotos

WunderBlog® & News

Nearby

Air Quality

  Air Quality AQ Index Pollutant
Not available.

Snow Depth

Station Depth Elevation

Earthquake Activity

City Distance Mag. Time & Date
Minimum magnitude displayed is 2.5.

Coastal Water Temperatures

Place Temperature

Stations

Nearby Weather Stations

Station Location Temp. Windchill Dew Point Humidity Wind Precip. Elev Updated Type
                   

Watches & Warnings

There are currently no watches in effect.